sensor_id;sensor_type;location;lat;lon;timestamp;temperature;humidity
17879;DHT22;9065;51.050;13.758;2022-09-13T00:01:10;13.80;99.90
17879;DHT22;9065;51.050;13.758;2022-09-13T00:03:38;13.70;99.90
17879;DHT22;9065;51.050;13.758;2022-09-13T00:06:11;13.70;99.90
17879;DHT22;9065;51.050;13.758;2022-09-13T00:08:41;13.60;99.90
17879;DHT22;9065;51.050;13.758;2022-09-13T00:11:14;13.60;99.90
17879;DHT22;9065;51.050;13.758;2022-09-13T00:13:43;13.60;99.90
17879;DHT22;9065;51.050;13.758;2022-09-13T00:16:12;13.60;99.90
17879;DHT22;9065;51.050;13.758;2022-09-13T00:18:40;13.60;99.90
17879;DHT22;9065;51.050;13.758;2022-09-13T00:21:10;13.60;99.90
17879;DHT22;9065;51.050;13.758;2022-09-13T00:23:41;13.60;99.90
17879;DHT22;9065;51.050;13.758;2022-09-13T00:26:10;13.60;99.90
17879;DHT22;9065;51.050;13.758;2022-09-13T00:28:38;13.60;99.90
17879;DHT22;9065;51.050;13.758;2022-09-13T00:31:07;13.60;99.90
17879;DHT22;9065;51.050;13.758;2022-09-13T00:33:36;13.50;99.90
17879;DHT22;9065;51.050;13.758;2022-09-13T00:36:04;13.60;99.90
17879;DHT22;9065;51.050;13.758;2022-09-13T00:38:33;13.50;99.90
17879;DHT22;9065;51.050;13.758;2022-09-13T00:41:03;13.50;99.90
17879;DHT22;9065;51.050;13.758;2022-09-13T00:43:50;13.50;99.90
17879;DHT22;9065;51.050;13.758;2022-09-13T00:46:22;13.40;99.90
17879;DHT22;9065;51.050;13.758;2022-09-13T00:48:56;13.40;99.90
17879;DHT22;9065;51.050;13.758;2022-09-13T00:51:27;13.40;99.90
17879;DHT22;9065;51.050;13.758;2022-09-13T00:53:55;13.40;99.90
17879;DHT22;9065;51.050;13.758;2022-09-13T00:56:29;13.30;99.90
17879;DHT22;9065;51.050;13.758;2022-09-13T00:59:01;13.30;99.90
17879;DHT22;9065;51.050;13.758;2022-09-13T01:01:39;13.40;99.90
17879;DHT22;9065;51.050;13.758;2022-09-13T01:04:08;13.40;99.90
17879;DHT22;9065;51.050;13.758;2022-09-13T01:06:37;13.30;99.90
17879;DHT22;9065;51.050;13.758;2022-09-13T01:09:06;13.30;99.90
17879;DHT22;9065;51.050;13.758;2022-09-13T01:11:42;13.30;99.90
17879;DHT22;9065;51.050;13.758;2022-09-13T01:14:12;13.30;99.90
17879;DHT22;9065;51.050;13.758;2022-09-13T01:16:42;13.20;99.90
17879;DHT22;9065;51.050;13.758;2022-09-13T01:19:10;13.20;99.90
17879;DHT22;9065;51.050;13.758;2022-09-13T01:24:56;13.20;99.90
17879;DHT22;9065;51.050;13.758;2022-09-13T01:27:40;13.20;99.90
17879;DHT22;9065;51.050;13.758;2022-09-13T01:30:16;13.20;99.90
17879;DHT22;9065;51.050;13.758;2022-09-13T01:32:55;13.30;99.90
17879;DHT22;9065;51.050;13.758;2022-09-13T01:35:33;13.30;99.90
17879;DHT22;9065;51.050;13.758;2022-09-13T01:38:13;13.30;99.90
17879;DHT22;9065;51.050;13.758;2022-09-13T01:40:51;13.30;99.90
17879;DHT22;9065;51.050;13.758;2022-09-13T01:43:33;13.20;99.90
17879;DHT22;9065;51.050;13.758;2022-09-13T01:46:05;13.30;99.90
17879;DHT22;9065;51.050;13.758;2022-09-13T01:48:47;13.30;99.90
17879;DHT22;9065;51.050;13.758;2022-09-13T01:51:25;13.20;99.90
17879;DHT22;9065;51.050;13.758;2022-09-13T01:54:01;13.20;99.90
17879;DHT22;9065;51.050;13.758;2022-09-13T01:56:34;13.20;99.90
17879;DHT22;9065;51.050;13.758;2022-09-13T01:59:09;13.20;99.90
17879;DHT22;9065;51.050;13.758;2022-09-13T02:01:42;13.20;99.90
17879;DHT22;9065;51.050;13.758;2022-09-13T02:04:16;13.20;99.90
17879;DHT22;9065;51.050;13.758;2022-09-13T02:06:48;13.20;99.90
17879;DHT22;9065;51.050;13.758;2022-09-13T02:09:20;13.20;99.90
17879;DHT22;9065;51.050;13.758;2022-09-13T02:11:52;13.20;99.90
17879;DHT22;9065;51.050;13.758;2022-09-13T02:14:25;13.20;99.90
17879;DHT22;9065;51.050;13.758;2022-09-13T02:17:00;13.10;99.90
17879;DHT22;9065;51.050;13.758;2022-09-13T02:19:38;13.10;99.90
17879;DHT22;9065;51.050;13.758;2022-09-13T02:22:08;13.10;99.90
17879;DHT22;9065;51.050;13.758;2022-09-13T02:24:41;13.10;99.90
17879;DHT22;9065;51.050;13.758;2022-09-13T02:27:14;13.10;99.90
17879;DHT22;9065;51.050;13.758;2022-09-13T02:29:44;13.10;99.90
17879;DHT22;9065;51.050;13.758;2022-09-13T02:32:17;13.20;99.90
17879;DHT22;9065;51.050;13.758;2022-09-13T02:34:51;13.20;99.90
17879;DHT22;9065;51.050;13.758;2022-09-13T02:37:22;13.20;99.90
17879;DHT22;9065;51.050;13.758;2022-09-13T02:39:54;13.20;99.90
17879;DHT22;9065;51.050;13.758;2022-09-13T02:42:28;13.20;99.90
17879;DHT22;9065;51.050;13.758;2022-09-13T02:44:56;13.30;99.90
17879;DHT22;9065;51.050;13.758;2022-09-13T02:47:36;13.30;99.90
17879;DHT22;9065;51.050;13.758;2022-09-13T02:50:12;13.20;99.90
17879;DHT22;9065;51.050;13.758;2022-09-13T02:52:49;13.20;99.90
17879;DHT22;9065;51.050;13.758;2022-09-13T02:55:20;13.20;99.90
17879;DHT22;9065;51.050;13.758;2022-09-13T02:57:57;13.20;99.90
17879;DHT22;9065;51.050;13.758;2022-09-13T03:00:25;13.20;99.90
17879;DHT22;9065;51.050;13.758;2022-09-13T03:02:56;13.20;99.90
17879;DHT22;9065;51.050;13.758;2022-09-13T03:05:23;13.20;99.90
17879;DHT22;9065;51.050;13.758;2022-09-13T03:07:51;13.20;99.90
17879;DHT22;9065;51.050;13.758;2022-09-13T03:10:18;13.20;99.90
17879;DHT22;9065;51.050;13.758;2022-09-13T03:13:09;13.20;99.90
17879;DHT22;9065;51.050;13.758;2022-09-13T03:15:49;13.20;99.90
17879;DHT22;9065;51.050;13.758;2022-09-13T03:18:33;13.20;99.90
17879;DHT22;9065;51.050;13.758;2022-09-13T03:21:09;13.20;99.90
17879;DHT22;9065;51.050;13.758;2022-09-13T03:23:56;13.10;99.90
17879;DHT22;9065;51.050;13.758;2022-09-13T03:26:39;13.10;99.90
17879;DHT22;9065;51.050;13.758;2022-09-13T03:29:25;13.10;99.90
17879;DHT22;9065;51.050;13.758;2022-09-13T03:32:02;13.10;99.90
17879;DHT22;9065;51.050;13.758;2022-09-13T03:34:39;13.10;99.90
17879;DHT22;9065;51.050;13.758;2022-09-13T03:37:18;13.00;99.90
17879;DHT22;9065;51.050;13.758;2022-09-13T03:39:53;13.00;99.90
17879;DHT22;9065;51.050;13.758;2022-09-13T03:42:25;13.00;99.90
17879;DHT22;9065;51.050;13.758;2022-09-13T03:44:55;13.00;99.90
17879;DHT22;9065;51.050;13.758;2022-09-13T03:47:24;13.00;99.90
17879;DHT22;9065;51.050;13.758;2022-09-13T03:49:53;13.00;99.90
17879;DHT22;9065;51.050;13.758;2022-09-13T03:52:21;13.00;99.90
17879;DHT22;9065;51.050;13.758;2022-09-13T03:54:51;13.10;99.90
17879;DHT22;9065;51.050;13.758;2022-09-13T03:57:21;13.10;99.90
17879;DHT22;9065;51.050;13.758;2022-09-13T03:59:50;13.10;99.90
17879;DHT22;9065;51.050;13.758;2022-09-13T04:02:19;13.10;99.90
17879;DHT22;9065;51.050;13.758;2022-09-13T04:04:49;13.10;99.90
17879;DHT22;9065;51.050;13.758;2022-09-13T04:07:23;13.10;99.90
17879;DHT22;9065;51.050;13.758;2022-09-13T04:09:50;13.10;99.90
17879;DHT22;9065;51.050;13.758;2022-09-13T04:12:18;13.10;99.90
17879;DHT22;9065;51.050;13.758;2022-09-13T04:14:45;13.10;99.90
17879;DHT22;9065;51.050;13.758;2022-09-13T04:17:13;13.10;99.90
17879;DHT22;9065;51.050;13.758;2022-09-13T04:19:41;13.10;99.90
17879;DHT22;9065;51.050;13.758;2022-09-13T04:22:09;13.10;99.90
17879;DHT22;9065;51.050;13.758;2022-09-13T04:24:37;13.00;99.90
17879;DHT22;9065;51.050;13.758;2022-09-13T04:27:04;13.10;99.90
17879;DHT22;9065;51.050;13.758;2022-09-13T04:29:32;13.10;99.90
17879;DHT22;9065;51.050;13.758;2022-09-13T04:32:00;13.00;99.90
17879;DHT22;9065;51.050;13.758;2022-09-13T04:34:27;13.10;99.90
17879;DHT22;9065;51.050;13.758;2022-09-13T04:36:54;13.00;99.90
17879;DHT22;9065;51.050;13.758;2022-09-13T04:39:21;13.10;99.90
17879;DHT22;9065;51.050;13.758;2022-09-13T04:41:51;13.00;99.90
17879;DHT22;9065;51.050;13.758;2022-09-13T04:44:20;13.00;99.90
17879;DHT22;9065;51.050;13.758;2022-09-13T04:46:47;13.00;99.90
17879;DHT22;9065;51.050;13.758;2022-09-13T04:49:16;13.00;99.90
17879;DHT22;9065;51.050;13.758;2022-09-13T04:51:45;13.00;99.90
17879;DHT22;9065;51.050;13.758;2022-09-13T04:54:13;13.00;99.90
17879;DHT22;9065;51.050;13.758;2022-09-13T04:56:40;13.00;99.90
17879;DHT22;9065;51.050;13.758;2022-09-13T04:59:08;13.00;99.90
17879;DHT22;9065;51.050;13.758;2022-09-13T05:01:36;13.10;99.90
17879;DHT22;9065;51.050;13.758;2022-09-13T05:04:04;13.10;99.90
17879;DHT22;9065;51.050;13.758;2022-09-13T05:06:31;13.10;99.90
17879;DHT22;9065;51.050;13.758;2022-09-13T05:08:57;13.10;99.90
17879;DHT22;9065;51.050;13.758;2022-09-13T05:11:26;13.20;99.90
17879;DHT22;9065;51.050;13.758;2022-09-13T05:13:56;13.20;99.90
17879;DHT22;9065;51.050;13.758;2022-09-13T05:16:25;13.30;99.90
17879;DHT22;9065;51.050;13.758;2022-09-13T05:18:55;13.30;99.90
17879;DHT22;9065;51.050;13.758;2022-09-13T05:21:23;13.30;99.90
17879;DHT22;9065;51.050;13.758;2022-09-13T05:23:50;13.30;99.90
17879;DHT22;9065;51.050;13.758;2022-09-13T05:26:19;13.30;99.90
17879;DHT22;9065;51.050;13.758;2022-09-13T05:28:46;13.40;99.90
17879;DHT22;9065;51.050;13.758;2022-09-13T05:31:15;13.40;99.90
17879;DHT22;9065;51.050;13.758;2022-09-13T05:33:52;13.40;99.90
17879;DHT22;9065;51.050;13.758;2022-09-13T05:36:28;13.50;99.90
17879;DHT22;9065;51.050;13.758;2022-09-13T05:38:55;13.50;99.90
17879;DHT22;9065;51.050;13.758;2022-09-13T05:41:29;13.60;99.90
17879;DHT22;9065;51.050;13.758;2022-09-13T05:43:57;13.60;99.90
17879;DHT22;9065;51.050;13.758;2022-09-13T05:46:24;13.70;99.90
17879;DHT22;9065;51.050;13.758;2022-09-13T05:48:52;13.80;99.90
17879;DHT22;9065;51.050;13.758;2022-09-13T05:51:21;13.80;99.90
17879;DHT22;9065;51.050;13.758;2022-09-13T05:53:51;13.90;99.90
17879;DHT22;9065;51.050;13.758;2022-09-13T05:56:21;14.00;99.90
17879;DHT22;9065;51.050;13.758;2022-09-13T05:58:50;14.10;99.90
17879;DHT22;9065;51.050;13.758;2022-09-13T06:01:21;14.20;99.90
17879;DHT22;9065;51.050;13.758;2022-09-13T06:03:53;14.30;99.90
17879;DHT22;9065;51.050;13.758;2022-09-13T06:06:21;14.30;99.90
17879;DHT22;9065;51.050;13.758;2022-09-13T06:08:51;14.30;99.90
17879;DHT22;9065;51.050;13.758;2022-09-13T06:11:18;14.40;99.90
17879;DHT22;9065;51.050;13.758;2022-09-13T06:13:45;14.40;99.90
17879;DHT22;9065;51.050;13.758;2022-09-13T06:16:14;14.50;99.90
17879;DHT22;9065;51.050;13.758;2022-09-13T06:18:41;14.50;99.90
17879;DHT22;9065;51.050;13.758;2022-09-13T06:21:14;14.60;99.90
17879;DHT22;9065;51.050;13.758;2022-09-13T06:23:42;14.80;99.90
17879;DHT22;9065;51.050;13.758;2022-09-13T06:26:11;15.00;99.90
17879;DHT22;9065;51.050;13.758;2022-09-13T06:28:39;15.10;99.90
17879;DHT22;9065;51.050;13.758;2022-09-13T06:31:07;15.30;99.90
17879;DHT22;9065;51.050;13.758;2022-09-13T06:33:35;15.50;99.90
17879;DHT22;9065;51.050;13.758;2022-09-13T06:36:03;15.60;99.90
17879;DHT22;9065;51.050;13.758;2022-09-13T06:38:32;15.70;99.90
17879;DHT22;9065;51.050;13.758;2022-09-13T06:41:00;15.80;99.90
17879;DHT22;9065;51.050;13.758;2022-09-13T06:43:27;15.80;99.90
17879;DHT22;9065;51.050;13.758;2022-09-13T06:45:59;15.80;99.90
17879;DHT22;9065;51.050;13.758;2022-09-13T06:48:29;15.80;99.90
17879;DHT22;9065;51.050;13.758;2022-09-13T06:50:58;15.90;99.90
17879;DHT22;9065;51.050;13.758;2022-09-13T06:53:25;16.10;99.90
17879;DHT22;9065;51.050;13.758;2022-09-13T06:56:01;16.30;99.90
17879;DHT22;9065;51.050;13.758;2022-09-13T06:58:28;16.50;99.90
17879;DHT22;9065;51.050;13.758;2022-09-13T07:01:05;16.60;99.90
17879;DHT22;9065;51.050;13.758;2022-09-13T07:03:34;16.70;99.90
17879;DHT22;9065;51.050;13.758;2022-09-13T07:06:06;16.80;99.90
17879;DHT22;9065;51.050;13.758;2022-09-13T07:08:33;16.90;99.90
17879;DHT22;9065;51.050;13.758;2022-09-13T07:11:01;16.90;99.90
17879;DHT22;9065;51.050;13.758;2022-09-13T07:13:28;17.00;99.90
17879;DHT22;9065;51.050;13.758;2022-09-13T07:15:55;17.00;99.90
17879;DHT22;9065;51.050;13.758;2022-09-13T07:18:22;17.10;99.90
17879;DHT22;9065;51.050;13.758;2022-09-13T07:20:49;17.20;99.90
17879;DHT22;9065;51.050;13.758;2022-09-13T07:23:15;17.10;99.90
17879;DHT22;9065;51.050;13.758;2022-09-13T07:25:42;17.20;99.90
17879;DHT22;9065;51.050;13.758;2022-09-13T07:28:10;17.30;99.90
17879;DHT22;9065;51.050;13.758;2022-09-13T07:30:37;17.40;99.90
17879;DHT22;9065;51.050;13.758;2022-09-13T07:33:05;17.40;99.90
17879;DHT22;9065;51.050;13.758;2022-09-13T07:35:32;17.40;99.90
17879;DHT22;9065;51.050;13.758;2022-09-13T07:37:59;17.50;99.90
17879;DHT22;9065;51.050;13.758;2022-09-13T07:40:26;17.70;99.90
17879;DHT22;9065;51.050;13.758;2022-09-13T07:42:53;17.80;99.90
17879;DHT22;9065;51.050;13.758;2022-09-13T07:45:22;17.80;99.90
17879;DHT22;9065;51.050;13.758;2022-09-13T07:47:50;17.80;99.90
17879;DHT22;9065;51.050;13.758;2022-09-13T07:50:23;17.70;99.90
17879;DHT22;9065;51.050;13.758;2022-09-13T07:52:53;17.60;99.90
17879;DHT22;9065;51.050;13.758;2022-09-13T07:55:20;17.70;99.90
17879;DHT22;9065;51.050;13.758;2022-09-13T07:57:47;17.70;99.90
17879;DHT22;9065;51.050;13.758;2022-09-13T08:00:14;17.60;99.90
17879;DHT22;9065;51.050;13.758;2022-09-13T08:02:43;17.50;99.90
17879;DHT22;9065;51.050;13.758;2022-09-13T08:05:10;17.50;99.90
17879;DHT22;9065;51.050;13.758;2022-09-13T08:07:40;17.50;99.90
17879;DHT22;9065;51.050;13.758;2022-09-13T08:10:08;17.50;99.90
17879;DHT22;9065;51.050;13.758;2022-09-13T08:12:35;17.50;99.90
17879;DHT22;9065;51.050;13.758;2022-09-13T08:15:03;17.60;99.90
17879;DHT22;9065;51.050;13.758;2022-09-13T08:17:30;17.50;99.90
17879;DHT22;9065;51.050;13.758;2022-09-13T08:20:00;17.40;99.90
17879;DHT22;9065;51.050;13.758;2022-09-13T08:22:28;17.40;99.90
17879;DHT22;9065;51.050;13.758;2022-09-13T08:24:55;17.30;99.90
17879;DHT22;9065;51.050;13.758;2022-09-13T08:27:22;17.30;99.90
17879;DHT22;9065;51.050;13.758;2022-09-13T08:29:55;17.40;99.90
17879;DHT22;9065;51.050;13.758;2022-09-13T08:32:22;17.50;99.90
17879;DHT22;9065;51.050;13.758;2022-09-13T08:34:50;17.70;99.90
17879;DHT22;9065;51.050;13.758;2022-09-13T08:37:19;17.80;99.90
17879;DHT22;9065;51.050;13.758;2022-09-13T08:39:46;18.00;99.90
17879;DHT22;9065;51.050;13.758;2022-09-13T08:42:23;18.10;99.90
17879;DHT22;9065;51.050;13.758;2022-09-13T08:44:54;18.10;99.90
17879;DHT22;9065;51.050;13.758;2022-09-13T08:47:35;18.00;99.90
17879;DHT22;9065;51.050;13.758;2022-09-13T08:50:12;17.80;99.90
17879;DHT22;9065;51.050;13.758;2022-09-13T08:52:53;17.80;99.90
17879;DHT22;9065;51.050;13.758;2022-09-13T08:55:30;17.80;99.90
17879;DHT22;9065;51.050;13.758;2022-09-13T08:58:04;17.80;99.90
17879;DHT22;9065;51.050;13.758;2022-09-13T09:00:37;17.90;99.90
17879;DHT22;9065;51.050;13.758;2022-09-13T09:03:15;18.00;99.90
17879;DHT22;9065;51.050;13.758;2022-09-13T09:05:45;18.00;99.90
17879;DHT22;9065;51.050;13.758;2022-09-13T09:08:21;18.00;99.90
17879;DHT22;9065;51.050;13.758;2022-09-13T09:10:50;18.00;99.90
17879;DHT22;9065;51.050;13.758;2022-09-13T09:13:25;18.00;99.90
17879;DHT22;9065;51.050;13.758;2022-09-13T09:15:56;18.00;99.90
17879;DHT22;9065;51.050;13.758;2022-09-13T09:18:26;18.00;99.90
17879;DHT22;9065;51.050;13.758;2022-09-13T09:20:56;18.00;99.90
17879;DHT22;9065;51.050;13.758;2022-09-13T09:23:29;18.00;99.90
17879;DHT22;9065;51.050;13.758;2022-09-13T09:26:04;18.20;99.90
17879;DHT22;9065;51.050;13.758;2022-09-13T09:28:36;18.20;99.90
17879;DHT22;9065;51.050;13.758;2022-09-13T09:31:09;18.30;99.90
17879;DHT22;9065;51.050;13.758;2022-09-13T09:33:48;18.30;99.90
17879;DHT22;9065;51.050;13.758;2022-09-13T09:36:24;18.40;99.90
17879;DHT22;9065;51.050;13.758;2022-09-13T09:38:56;18.50;99.90
17879;DHT22;9065;51.050;13.758;2022-09-13T09:41:26;18.60;99.90
17879;DHT22;9065;51.050;13.758;2022-09-13T09:43:58;18.80;99.90
17879;DHT22;9065;51.050;13.758;2022-09-13T09:46:30;19.00;99.90
17879;DHT22;9065;51.050;13.758;2022-09-13T09:49:04;19.20;99.90
17879;DHT22;9065;51.050;13.758;2022-09-13T09:51:53;19.40;99.90
17879;DHT22;9065;51.050;13.758;2022-09-13T09:54:24;19.50;99.90
17879;DHT22;9065;51.050;13.758;2022-09-13T09:56:54;19.60;99.90
17879;DHT22;9065;51.050;13.758;2022-09-13T09:59:26;19.80;99.90
17879;DHT22;9065;51.050;13.758;2022-09-13T10:01:54;20.10;99.90
17879;DHT22;9065;51.050;13.758;2022-09-13T10:04:22;20.20;99.90
17879;DHT22;9065;51.050;13.758;2022-09-13T10:06:50;20.80;99.90
17879;DHT22;9065;51.050;13.758;2022-09-13T10:09:35;21.40;99.90
17879;DHT22;9065;51.050;13.758;2022-09-13T10:12:04;22.10;99.90
17879;DHT22;9065;51.050;13.758;2022-09-13T10:14:38;22.40;99.90
17879;DHT22;9065;51.050;13.758;2022-09-13T10:17:16;22.60;99.90
17879;DHT22;9065;51.050;13.758;2022-09-13T10:19:55;22.60;99.90
17879;DHT22;9065;51.050;13.758;2022-09-13T10:22:24;22.80;99.90
17879;DHT22;9065;51.050;13.758;2022-09-13T10:24:54;22.90;99.90
17879;DHT22;9065;51.050;13.758;2022-09-13T10:27:25;22.70;99.90
17879;DHT22;9065;51.050;13.758;2022-09-13T10:29:55;22.70;99.90
17879;DHT22;9065;51.050;13.758;2022-09-13T10:32:25;22.70;99.90
17879;DHT22;9065;51.050;13.758;2022-09-13T10:34:52;22.50;99.90
17879;DHT22;9065;51.050;13.758;2022-09-13T10:37:23;22.50;99.90
17879;DHT22;9065;51.050;13.758;2022-09-13T10:40:00;22.60;99.90
17879;DHT22;9065;51.050;13.758;2022-09-13T10:42:28;22.80;99.90
17879;DHT22;9065;51.050;13.758;2022-09-13T10:44:58;23.00;99.90
17879;DHT22;9065;51.050;13.758;2022-09-13T10:47:30;23.30;99.90
17879;DHT22;9065;51.050;13.758;2022-09-13T10:50:15;24.10;99.90
17879;DHT22;9065;51.050;13.758;2022-09-13T10:52:45;25.70;99.90
17879;DHT22;9065;51.050;13.758;2022-09-13T10:55:32;27.40;99.90
17879;DHT22;9065;51.050;13.758;2022-09-13T10:58:16;29.30;99.90
17879;DHT22;9065;51.050;13.758;2022-09-13T11:06:47;31.80;99.90
17879;DHT22;9065;51.050;13.758;2022-09-13T11:09:21;30.90;99.90
17879;DHT22;9065;51.050;13.758;2022-09-13T11:11:57;29.60;99.90
17879;DHT22;9065;51.050;13.758;2022-09-13T11:14:45;29.20;99.90
17879;DHT22;9065;51.050;13.758;2022-09-13T11:17:22;28.70;99.90
17879;DHT22;9065;51.050;13.758;2022-09-13T11:20:12;28.20;99.90
17879;DHT22;9065;51.050;13.758;2022-09-13T11:23:07;27.80;99.90
17879;DHT22;9065;51.050;13.758;2022-09-13T11:25:47;27.40;99.90
17879;DHT22;9065;51.050;13.758;2022-09-13T11:28:24;27.00;99.90
17879;DHT22;9065;51.050;13.758;2022-09-13T11:31:07;26.50;99.90
17879;DHT22;9065;51.050;13.758;2022-09-13T11:33:47;26.20;99.90
17879;DHT22;9065;51.050;13.758;2022-09-13T11:36:33;26.10;99.90
17879;DHT22;9065;51.050;13.758;2022-09-13T11:39:13;25.90;99.90
17879;DHT22;9065;51.050;13.758;2022-09-13T11:41:51;26.00;99.90
17879;DHT22;9065;51.050;13.758;2022-09-13T11:44:36;25.80;99.90
17879;DHT22;9065;51.050;13.758;2022-09-13T11:47:17;25.80;99.90
17879;DHT22;9065;51.050;13.758;2022-09-13T11:49:56;26.00;99.90
17879;DHT22;9065;51.050;13.758;2022-09-13T11:52:36;26.00;99.90
17879;DHT22;9065;51.050;13.758;2022-09-13T11:55:24;25.80;99.90
17879;DHT22;9065;51.050;13.758;2022-09-13T11:57:54;25.80;99.90
17879;DHT22;9065;51.050;13.758;2022-09-13T12:00:25;25.80;99.90
17879;DHT22;9065;51.050;13.758;2022-09-13T12:03:02;25.70;99.90
17879;DHT22;9065;51.050;13.758;2022-09-13T12:05:35;25.60;99.90
17879;DHT22;9065;51.050;13.758;2022-09-13T12:08:11;25.60;99.90
17879;DHT22;9065;51.050;13.758;2022-09-13T12:10:44;25.60;99.90
17879;DHT22;9065;51.050;13.758;2022-09-13T12:13:16;25.30;99.90
17879;DHT22;9065;51.050;13.758;2022-09-13T12:15:47;25.10;99.90
17879;DHT22;9065;51.050;13.758;2022-09-13T12:18:19;25.20;99.90
17879;DHT22;9065;51.050;13.758;2022-09-13T12:20:51;25.20;99.90
17879;DHT22;9065;51.050;13.758;2022-09-13T12:23:23;25.10;99.90
17879;DHT22;9065;51.050;13.758;2022-09-13T12:25:55;25.20;99.90
17879;DHT22;9065;51.050;13.758;2022-09-13T12:28:25;25.30;99.90
17879;DHT22;9065;51.050;13.758;2022-09-13T12:30:58;25.30;99.90
17879;DHT22;9065;51.050;13.758;2022-09-13T12:33:28;25.30;99.90
17879;DHT22;9065;51.050;13.758;2022-09-13T12:36:09;25.20;99.90
17879;DHT22;9065;51.050;13.758;2022-09-13T12:39:00;25.00;99.90
17879;DHT22;9065;51.050;13.758;2022-09-13T12:41:43;25.00;99.90
17879;DHT22;9065;51.050;13.758;2022-09-13T12:44:37;24.80;99.90
17879;DHT22;9065;51.050;13.758;2022-09-13T12:47:39;24.80;99.90
17879;DHT22;9065;51.050;13.758;2022-09-13T12:53:04;24.80;99.90
17879;DHT22;9065;51.050;13.758;2022-09-13T12:58:47;24.80;99.90
17879;DHT22;9065;51.050;13.758;2022-09-13T13:01:20;24.70;99.90
17879;DHT22;9065;51.050;13.758;2022-09-13T13:03:53;24.80;99.90
17879;DHT22;9065;51.050;13.758;2022-09-13T13:06:28;24.70;99.90
17879;DHT22;9065;51.050;13.758;2022-09-13T13:08:59;24.70;99.90
17879;DHT22;9065;51.050;13.758;2022-09-13T13:11:27;24.70;99.90
17879;DHT22;9065;51.050;13.758;2022-09-13T13:13:59;24.70;99.90
17879;DHT22;9065;51.050;13.758;2022-09-13T13:16:37;24.70;99.90
17879;DHT22;9065;51.050;13.758;2022-09-13T13:22:50;24.70;99.90
17879;DHT22;9065;51.050;13.758;2022-09-13T13:25:32;24.60;99.90
17879;DHT22;9065;51.050;13.758;2022-09-13T13:31:06;24.50;99.90
17879;DHT22;9065;51.050;13.758;2022-09-13T13:33:45;24.40;99.90
17879;DHT22;9065;51.050;13.758;2022-09-13T13:36:23;24.30;99.90
17879;DHT22;9065;51.050;13.758;2022-09-13T13:38:51;24.20;99.90
17879;DHT22;9065;51.050;13.758;2022-09-13T13:50:24;23.80;99.90
17879;DHT22;9065;51.050;13.758;2022-09-13T13:52:53;23.90;99.90
17879;DHT22;9065;51.050;13.758;2022-09-13T13:55:40;23.90;99.90
17879;DHT22;9065;51.050;13.758;2022-09-13T13:58:29;24.10;99.90
17879;DHT22;9065;51.050;13.758;2022-09-13T14:00:59;24.10;99.90
17879;DHT22;9065;51.050;13.758;2022-09-13T14:03:41;24.10;99.90
17879;DHT22;9065;51.050;13.758;2022-09-13T14:06:16;24.10;99.90
17879;DHT22;9065;51.050;13.758;2022-09-13T14:09:00;24.10;99.90
17879;DHT22;9065;51.050;13.758;2022-09-13T14:11:40;24.10;99.90
17879;DHT22;9065;51.050;13.758;2022-09-13T14:14:21;24.10;99.90
17879;DHT22;9065;51.050;13.758;2022-09-13T14:17:00;24.10;99.90
17879;DHT22;9065;51.050;13.758;2022-09-13T14:19:33;24.10;99.90
17879;DHT22;9065;51.050;13.758;2022-09-13T14:22:08;24.10;99.90
17879;DHT22;9065;51.050;13.758;2022-09-13T14:24:38;24.10;99.90
17879;DHT22;9065;51.050;13.758;2022-09-13T14:27:15;24.10;99.90
17879;DHT22;9065;51.050;13.758;2022-09-13T14:29:47;24.00;99.90
17879;DHT22;9065;51.050;13.758;2022-09-13T14:32:19;24.00;99.90
17879;DHT22;9065;51.050;13.758;2022-09-13T14:34:53;24.00;99.90
17879;DHT22;9065;51.050;13.758;2022-09-13T14:37:25;24.00;99.90
17879;DHT22;9065;51.050;13.758;2022-09-13T14:39:54;24.00;99.90
17879;DHT22;9065;51.050;13.758;2022-09-13T14:42:23;23.90;99.90
17879;DHT22;9065;51.050;13.758;2022-09-13T14:44:50;23.90;99.90
17879;DHT22;9065;51.050;13.758;2022-09-13T14:47:26;23.90;99.90
17879;DHT22;9065;51.050;13.758;2022-09-13T14:49:58;23.80;99.90
17879;DHT22;9065;51.050;13.758;2022-09-13T14:52:30;23.80;99.90
17879;DHT22;9065;51.050;13.758;2022-09-13T14:55:00;23.80;99.90
17879;DHT22;9065;51.050;13.758;2022-09-13T14:57:33;23.80;99.90
17879;DHT22;9065;51.050;13.758;2022-09-13T15:00:04;23.70;99.90
17879;DHT22;9065;51.050;13.758;2022-09-13T15:02:36;23.60;99.90
17879;DHT22;9065;51.050;13.758;2022-09-13T15:05:06;23.60;99.90
17879;DHT22;9065;51.050;13.758;2022-09-13T15:07:37;23.60;99.90
17879;DHT22;9065;51.050;13.758;2022-09-13T15:10:07;23.50;99.90
17879;DHT22;9065;51.050;13.758;2022-09-13T15:12:36;23.50;99.90
17879;DHT22;9065;51.050;13.758;2022-09-13T15:15:30;23.40;99.90
17879;DHT22;9065;51.050;13.758;2022-09-13T15:18:00;23.40;99.90
17879;DHT22;9065;51.050;13.758;2022-09-13T15:20:42;23.30;99.90
17879;DHT22;9065;51.050;13.758;2022-09-13T15:23:13;23.30;99.90
17879;DHT22;9065;51.050;13.758;2022-09-13T15:25:47;23.30;99.90
17879;DHT22;9065;51.050;13.758;2022-09-13T15:28:22;23.30;99.90
17879;DHT22;9065;51.050;13.758;2022-09-13T15:30:49;23.30;99.90
17879;DHT22;9065;51.050;13.758;2022-09-13T15:33:24;23.30;99.90
17879;DHT22;9065;51.050;13.758;2022-09-13T15:35:51;23.30;99.90
17879;DHT22;9065;51.050;13.758;2022-09-13T15:38:25;23.30;99.90
17879;DHT22;9065;51.050;13.758;2022-09-13T15:41:02;23.30;99.90
17879;DHT22;9065;51.050;13.758;2022-09-13T15:43:30;23.20;99.90
17879;DHT22;9065;51.050;13.758;2022-09-13T15:45:57;23.30;99.90
17879;DHT22;9065;51.050;13.758;2022-09-13T15:48:29;23.20;99.90
17879;DHT22;9065;51.050;13.758;2022-09-13T15:51:07;23.10;99.90
17879;DHT22;9065;51.050;13.758;2022-09-13T15:53:36;23.10;99.90
17879;DHT22;9065;51.050;13.758;2022-09-13T15:56:05;23.10;99.90
17879;DHT22;9065;51.050;13.758;2022-09-13T15:58:34;23.00;99.90
17879;DHT22;9065;51.050;13.758;2022-09-13T16:01:02;23.00;99.90
17879;DHT22;9065;51.050;13.758;2022-09-13T16:03:29;23.10;99.90
17879;DHT22;9065;51.050;13.758;2022-09-13T16:05:57;23.00;99.90
17879;DHT22;9065;51.050;13.758;2022-09-13T16:08:24;23.00;99.90
17879;DHT22;9065;51.050;13.758;2022-09-13T16:10:52;23.10;99.90
17879;DHT22;9065;51.050;13.758;2022-09-13T16:13:18;22.90;99.90
17879;DHT22;9065;51.050;13.758;2022-09-13T16:15:48;23.00;99.90
17879;DHT22;9065;51.050;13.758;2022-09-13T16:18:15;22.90;99.90
17879;DHT22;9065;51.050;13.758;2022-09-13T16:20:48;22.90;99.90
17879;DHT22;9065;51.050;13.758;2022-09-13T16:23:15;22.90;99.90
17879;DHT22;9065;51.050;13.758;2022-09-13T16:25:43;22.90;99.90
17879;DHT22;9065;51.050;13.758;2022-09-13T16:28:14;22.80;99.90
17879;DHT22;9065;51.050;13.758;2022-09-13T16:30:43;22.80;99.90
17879;DHT22;9065;51.050;13.758;2022-09-13T16:33:11;22.80;99.90